Terminal Aerodrome Forecast
Issued by NWS

Home | Current Version | Previous Version | Text Only | Print | Product List | Glossary Off
Versions: 1 2 3 4 5 6 7 8 9 10 11 12 13 14 15 16 17 18 19 20 21 22 23 24 25 26 27 28 29 30 31 32 33 34 35 36

000
FTUS43 KGRB 270100 AAA
TAFRHI
TAF AMD
KRHI 270137Z 2702/2724 28005KT P6SM SCT250
     FM270400 31003KT P6SM BKN120
     FM270700 VRB03KT P6SM SCT040 BKN090
      TEMPO 2707/2711 6SM -SHRA BKN040
     FM271400 VRB03KT P6SM BKN070
     FM271800 29004KT P6SM SCT040=

USA.gov is the U.S. government's official web portal to all federal, state and local government web resources and services.